NAF87J EHVK-EHVK

Flight info

Callsign NAF87J
Flight time 0h 39m
Altitude 20000
Route EHVK
Aircraft F35/M-SDFGIRW/S

Departure

Time 2026-04-16 15:32
Airport Volkel Air Base (EHVK)

Arrival

Time 2026-04-16 16:12
Airport Volkel Air Base (EHVK)
Time Latitude Longitude Altitude Speed Heading
2026-04-16 15:26 51.65889 5.69672 74 ft 0 kts 354°
2026-04-16 15:31 51.66204 5.72594 65 ft 0 kts 238°
2026-04-16 15:32 51.66203 5.72594 65 ft 0 kts 238°
2026-04-16 15:32 51.65921 5.71862 92 ft 188 kts 238°
2026-04-16 15:32 51.65149 5.69576 2397 ft 263 kts 245°
2026-04-16 15:33 51.64416 5.66223 6524 ft 387 kts 264°
2026-04-16 15:33 51.65197 5.61150 8217 ft 563 kts 300°
2026-04-16 15:33 51.67372 5.55544 10165 ft 592 kts 307°
2026-04-16 15:33 51.71151 5.53637 11071 ft 619 kts 14°
2026-04-16 15:34 51.74373 5.57749 11270 ft 538 kts 52°
2026-04-16 15:34 51.76619 5.62513 17929 ft 538 kts 50°
2026-04-16 15:34 51.79048 5.67482 21191 ft 601 kts 49°
2026-04-16 15:34 51.81627 5.72751 21293 ft 594 kts 50°
2026-04-16 15:35 51.84168 5.78009 21386 ft 592 kts 50°
2026-04-16 15:35 51.86609 5.83061 20429 ft 539 kts 50°
2026-04-16 15:35 51.88673 5.87294 18738 ft 395 kts 48°
2026-04-16 15:35 51.89191 5.89996 15002 ft 190 kts 147°
2026-04-16 15:36 51.87565 5.92027 10824 ft 360 kts 144°
2026-04-16 15:36 51.85411 5.92777 9228 ft 318 kts 189°
2026-04-16 15:36 51.83107 5.92563 6136 ft 361 kts 171°
2026-04-16 15:36 51.80698 5.93737 3693 ft 320 kts 209°
2026-04-16 15:37 51.78687 5.92191 2611 ft 322 kts 206°
2026-04-16 15:37 51.76709 5.90647 2213 ft 301 kts 207°
2026-04-16 15:37 51.74901 5.89224 2075 ft 277 kts 207°
2026-04-16 15:37 51.73238 5.87922 1432 ft 251 kts 207°
2026-04-16 15:38 51.71896 5.86767 1214 ft 191 kts 215°
2026-04-16 15:38 51.71107 5.85232 1093 ft 191 kts 238°
2026-04-16 15:38 51.70238 5.83177 1286 ft 231 kts 240°
2026-04-16 15:38 51.69508 5.81063 1044 ft 203 kts 239°
2026-04-16 15:39 51.68797 5.79256 876 ft 183 kts 241°
2026-04-16 15:39 51.68161 5.77578 613 ft 171 kts 239°
2026-04-16 15:39 51.67566 5.76031 464 ft 152 kts 237°
2026-04-16 15:39 51.67025 5.74670 299 ft 133 kts 237°
2026-04-16 15:40 51.66564 5.73495 177 ft 129 kts 238°
2026-04-16 15:40 51.66038 5.72156 68 ft 127 kts 237°
2026-04-16 15:40 51.65477 5.70728 92 ft 232 kts 238°
2026-04-16 15:40 51.64615 5.68400 3360 ft 278 kts 240°
2026-04-16 15:41 51.63666 5.65169 8033 ft 373 kts 264°
2026-04-16 15:41 51.64135 5.63241 9597 ft 429 kts 305°
2026-04-16 15:41 51.64698 5.62021 10478 ft 444 kts 305°
2026-04-16 15:41 51.66540 5.57946 13485 ft 456 kts 304°
2026-04-16 15:42 51.68403 5.53778 16677 ft 454 kts 304°
2026-04-16 15:42 51.71040 5.51932 18794 ft 454 kts 24°
2026-04-16 15:42 51.73475 5.54956 20757 ft 459 kts 49°
2026-04-16 15:42 51.75500 5.58941 21432 ft 479 kts 48°
2026-04-16 15:43 51.77685 5.63534 20144 ft 551 kts 51°
2026-04-16 15:43 51.79509 5.69267 20560 ft 618 kts 87°
2026-04-16 15:43 51.78430 5.76332 20088 ft 687 kts 110°
2026-04-16 15:43 51.76719 5.84005 19462 ft 785 kts 111°
2026-04-16 15:44 51.74047 5.92236 18274 ft 871 kts 154°
2026-04-16 15:44 51.68324 5.90866 13695 ft 878 kts 218°
2026-04-16 15:44 51.65569 5.83691 11662 ft 631 kts 253°
2026-04-16 15:44 51.64483 5.78298 15441 ft 418 kts 252°
2026-04-16 15:45 51.63579 5.74212 17995 ft 394 kts 252°
2026-04-16 15:45 51.62589 5.70007 19998 ft 407 kts 251°
2026-04-16 15:45 51.61572 5.65733 22226 ft 410 kts 251°
2026-04-16 15:45 51.60541 5.61408 24569 ft 422 kts 251°
2026-04-16 15:46 51.59459 5.56803 25310 ft 461 kts 253°
2026-04-16 15:46 51.58588 5.51631 25569 ft 498 kts 260°
2026-04-16 15:46 51.58054 5.45985 25747 ft 518 kts 266°
2026-04-16 15:46 51.57895 5.40194 25817 ft 520 kts 271°
2026-04-16 15:47 51.58111 5.34386 25780 ft 521 kts 277°
2026-04-16 15:47 51.58684 5.28647 25650 ft 522 kts 282°
2026-04-16 15:47 51.59596 5.22978 25458 ft 524 kts 287°
2026-04-16 15:47 51.60873 5.17178 24990 ft 588 kts 292°
2026-04-16 15:48 51.62923 5.10878 24044 ft 687 kts 302°
2026-04-16 15:48 51.66156 5.04525 22095 ft 809 kts 315°
2026-04-16 15:48 51.70902 4.98427 18903 ft 925 kts 325°
2026-04-16 15:48 51.76905 4.94097 16158 ft 964 kts 350°
2026-04-16 15:49 51.83493 4.93181 17651 ft 917 kts 358°
2026-04-16 15:49 51.89607 4.93855 17806 ft 851 kts
2026-04-16 15:49 51.95209 4.95617 18735 ft 793 kts 11°
2026-04-16 15:49 52.00411 4.97535 19537 ft 741 kts 11°
2026-04-16 15:50 52.05269 4.99426 20734 ft 693 kts 11°
2026-04-16 15:50 52.09813 5.01223 21815 ft 657 kts 11°
2026-04-16 15:50 52.14152 5.02958 22783 ft 625 kts 11°
2026-04-16 15:50 52.18244 5.04620 23578 ft 590 kts 11°
2026-04-16 15:51 52.22187 5.06237 24317 ft 581 kts 10°
2026-04-16 15:51 52.26099 5.07848 24993 ft 579 kts 10°
2026-04-16 15:51 52.29995 5.09457 25654 ft 576 kts 10°
2026-04-16 15:51 52.31769 5.10190 25956 ft 575 kts 10°
2026-04-16 15:52 52.32668 5.10563 26110 ft 575 kts
2026-04-16 15:52 52.36597 5.12182 26669 ft 580 kts
2026-04-16 15:52 52.40443 5.13756 26749 ft 563 kts
2026-04-16 15:52 52.44233 5.15313 26804 ft 561 kts
2026-04-16 15:53 52.47999 5.16867 26820 ft 549 kts
2026-04-16 15:53 52.51589 5.18369 26800 ft 533 kts
2026-04-16 15:53 52.55267 5.19903 26811 ft 555 kts
2026-04-16 15:53 52.59022 5.21458 26852 ft 555 kts
2026-04-16 15:54 52.62688 5.22992 26849 ft 535 kts
2026-04-16 15:54 52.66306 5.24522 26850 ft 525 kts
2026-04-16 15:54 52.69814 5.26015 26807 ft 517 kts
2026-04-16 15:54 52.73227 5.27478 26779 ft 511 kts
2026-04-16 15:55 52.76694 5.28972 26757 ft 506 kts
2026-04-16 15:55 52.80045 5.30422 26735 ft 500 kts
2026-04-16 15:55 52.83387 5.31871 26775 ft 521 kts
2026-04-16 15:55 52.87257 5.33451 26795 ft 607 kts
2026-04-16 15:56 52.91650 5.35132 26454 ft 691 kts
2026-04-16 15:56 52.96645 5.36898 25977 ft 781 kts
2026-04-16 15:56 53.02434 5.37673 24918 ft 893 kts 356°
2026-04-16 15:56 53.08845 5.36861 22579 ft 905 kts 349°
2026-04-16 15:57 53.14563 5.34254 20220 ft 809 kts 331°
2026-04-16 15:57 53.18566 5.28880 21509 ft 674 kts 306°
2026-04-16 15:57 53.20677 5.22566 23344 ft 588 kts 284°
2026-04-16 15:57 53.20279 5.16387 20931 ft 551 kts 231°
2026-04-16 15:58 53.16723 5.14169 19663 ft 577 kts 177°
2026-04-16 15:58 53.12774 5.15177 20662 ft 575 kts 173°
2026-04-16 15:58 53.08849 5.16418 21338 ft 574 kts 171°
2026-04-16 15:58 53.04951 5.17845 22036 ft 573 kts 170°
2026-04-16 15:59 52.97116 5.21007 23493 ft 587 kts 169°
2026-04-16 15:59 52.93150 5.22611 24182 ft 586 kts 170°
2026-04-16 15:59 52.89189 5.24211 24823 ft 586 kts 170°
2026-04-16 16:00 52.86568 5.25269 25161 ft 587 kts 170°
2026-04-16 16:00 52.82594 5.26870 25701 ft 586 kts 170°
2026-04-16 16:00 52.78636 5.28464 26254 ft 585 kts 171°
2026-04-16 16:00 52.74681 5.30056 26816 ft 584 kts 171°
2026-04-16 16:01 52.70735 5.31645 27402 ft 583 kts 171°
2026-04-16 16:01 52.66794 5.33232 28011 ft 582 kts 171°
2026-04-16 16:01 52.62871 5.34812 28625 ft 581 kts 171°
2026-04-16 16:01 52.58942 5.36395 29296 ft 580 kts 171°
2026-04-16 16:02 52.55021 5.37974 29972 ft 580 kts 172°
2026-04-16 16:02 52.51109 5.39550 30618 ft 579 kts 172°
2026-04-16 16:02 52.47202 5.41123 31231 ft 579 kts 172°
2026-04-16 16:02 52.43274 5.42700 31392 ft 587 kts 172°
2026-04-16 16:03 52.39114 5.44168 29306 ft 654 kts 173°
2026-04-16 16:03 52.34254 5.45447 24432 ft 743 kts 174°
2026-04-16 16:03 52.28499 5.46877 17158 ft 940 kts 172°
2026-04-16 16:03 52.22210 5.48766 17171 ft 786 kts 168°
2026-04-16 16:04 52.18451 5.49909 13640 ft 404 kts 175°
2026-04-16 16:04 52.16155 5.50305 11269 ft 283 kts 180°
2026-04-16 16:04 52.14430 5.50599 9427 ft 231 kts 173°
2026-04-16 16:04 52.12638 5.51265 7504 ft 297 kts 167°
2026-04-16 16:05 52.10493 5.52363 5775 ft 334 kts 163°
2026-04-16 16:05 52.08365 5.53608 5947 ft 316 kts 162°
2026-04-16 16:05 52.06356 5.54811 6086 ft 300 kts 162°
2026-04-16 16:05 52.04441 5.55975 6207 ft 287 kts 162°
2026-04-16 16:06 52.02610 5.57100 6328 ft 275 kts 162°
2026-04-16 16:06 52.00861 5.58185 6431 ft 264 kts 162°
2026-04-16 16:06 51.99182 5.59234 6508 ft 254 kts 161°
2026-04-16 16:06 51.97571 5.60280 6579 ft 245 kts 160°
2026-04-16 16:07 51.96024 5.61341 6614 ft 238 kts 160°
2026-04-16 16:07 51.94524 5.62378 6636 ft 231 kts 160°
2026-04-16 16:07 51.93072 5.63389 6646 ft 224 kts 160°
2026-04-16 16:07 51.91662 5.64383 6657 ft 218 kts 160°
2026-04-16 16:08 51.90289 5.65358 6664 ft 212 kts 159°
2026-04-16 16:08 51.88938 5.66320 6445 ft 221 kts 160°
2026-04-16 16:08 51.87403 5.67276 5584 ft 252 kts 163°
2026-04-16 16:08 51.85703 5.68257 5268 ft 254 kts 160°
2026-04-16 16:09 51.84117 5.69310 5496 ft 239 kts 160°
2026-04-16 16:09 51.82633 5.70313 5707 ft 224 kts 160°
2026-04-16 16:09 51.81206 5.71287 5768 ft 232 kts 160°
2026-04-16 16:09 51.79596 5.72361 5671 ft 268 kts 160°
2026-04-16 16:10 51.77768 5.73565 5613 ft 299 kts 160°
2026-04-16 16:10 51.75747 5.74879 5588 ft 326 kts 160°
2026-04-16 16:10 51.73622 5.76252 4884 ft 313 kts 160°
2026-04-16 16:10 51.71953 5.76792 2964 ft 192 kts 211°
2026-04-16 16:11 51.70814 5.75568 2153 ft 200 kts 218°
2026-04-16 16:11 51.69559 5.74924 1277 ft 208 kts 190°
2026-04-16 16:11 51.68062 5.74603 522 ft 210 kts 194°
2026-04-16 16:11 51.66910 5.73503 199 ft 179 kts 227°
2026-04-16 16:12 51.66214 5.72038 62 ft 125 kts 236°
2026-04-16 16:12 51.65963 5.71406 66 ft 35 kts 237°
2026-04-16 16:12 51.65830 5.71071 67 ft 36 kts 237°
2026-04-16 16:12 51.65633 5.70560 72 ft 71 kts 239°
2026-04-16 16:13 51.65483 5.70170 75 ft 21 kts 238°
2026-04-16 16:13 51.65502 5.70032 75 ft 13 kts 328°
2026-04-16 16:13 51.65577 5.69955 71 ft 13 kts 327°
2026-04-16 16:13 51.65634 5.69870 74 ft 10 kts 256°
2026-04-16 16:14 51.65598 5.69811 75 ft 2 kts 184°
2026-04-16 16:14 51.65594 5.69826 75 ft 3 kts 79°
2026-04-16 16:14 51.65597 5.69830 75 ft 1 kts 18°
2026-04-16 16:14 51.65591 5.69829 75 ft 1 kts 357°
2026-04-16 16:15 51.65590 5.69829 75 ft 0 kts 357°